Time,TemperatureF,DewpointF,PressureIn,WindDirection,WindDirectionDegrees,WindSpeedMPH,WindSpeedGustMPH,Humidity,HourlyPrecipIn,Conditions,Clouds,dailyrainin,SolarRadiationWatts/m^2,SoftwareType,DateUTC
2013-05-15 00:02:00,51.0,51.0,-100.00,NNE,23,0.0,7.0,100,0.00,,,0.10,0.000000,,2013-05-15 10:02:00,
2013-05-15 00:12:00,51.0,51.0,-100.00,NNE,23,0.0,7.0,100,0.00,,,0.10,0.000000,,2013-05-15 10:12:00,
2013-05-15 00:22:00,51.0,51.0,-100.00,NNE,23,0.0,7.0,100,0.00,,,0.10,0.000000,,2013-05-15 10:22:00,
2013-05-15 00:32:00,51.0,51.0,-100.00,NNE,23,0.0,7.0,100,0.00,,,0.10,0.000000,,2013-05-15 10:32:00,
2013-05-15 00:33:00,51.0,51.0,-100.00,East,84,1.0,9.0,100,0.00,,,0.10,0.000000,,2013-05-15 10:33:00,
2013-05-15 00:52:00,51.0,51.0,-100.00,East,84,1.0,9.0,100,0.00,,,0.10,0.000000,,2013-05-15 10:52:00,
2013-05-15 01:08:00,51.0,51.0,-100.00,East,84,1.0,9.0,100,0.00,,,0.10,0.000000,,2013-05-15 11:08:00,
2013-05-15 01:15:00,51.0,51.0,-100.00,East,84,1.0,9.0,100,0.00,,,0.10,0.000000,,2013-05-15 11:15:00,
2013-05-15 01:24:00,51.0,51.0,-100.00,East,84,1.0,9.0,100,0.00,,,0.10,0.000000,,2013-05-15 11:24:00,
2013-05-15 01:58:00,52.0,50.0,-100.00,ENE,65,6.0,9.0,94,0.00,,,0.10,0.000000,,2013-05-15 11:58:00,
2013-05-15 02:06:00,52.0,50.0,-100.00,ENE,65,6.0,9.0,94,0.00,,,0.10,0.000000,,2013-05-15 12:06:00,
2013-05-15 02:13:00,52.0,50.0,-100.00,ENE,65,6.0,9.0,94,0.00,,,0.10,0.000000,,2013-05-15 12:13:00,
2013-05-15 02:24:00,52.0,50.0,-100.00,ENE,65,6.0,9.0,94,0.00,,,0.10,0.000000,,2013-05-15 12:24:00,
2013-05-15 02:33:00,51.0,49.0,-100.00,ENE,67,4.0,9.0,94,0.00,,,0.10,0.000000,,2013-05-15 12:33:00,
2013-05-15 02:56:00,51.0,49.0,-100.00,ENE,67,4.0,9.0,94,0.00,,,0.10,0.000000,,2013-05-15 12:56:00,
2013-05-15 03:06:00,51.0,49.0,-100.00,ENE,67,4.0,9.0,94,0.00,,,0.10,0.000000,,2013-05-15 13:06:00,
2013-05-15 03:14:00,51.0,49.0,-100.00,ENE,67,4.0,9.0,94,0.00,,,0.10,0.000000,,2013-05-15 13:14:00,
2013-05-15 03:24:00,51.0,49.0,-100.00,ENE,67,4.0,9.0,94,0.00,,,0.10,0.000000,,2013-05-15 13:24:00,
2013-05-15 03:33:00,50.0,46.0,-100.00,ENE,58,6.0,9.0,86,0.00,,,0.10,0.000000,,2013-05-15 13:33:00,
2013-05-15 03:58:00,50.0,46.0,-100.00,ENE,58,6.0,9.0,86,0.00,,,0.10,0.000000,,2013-05-15 13:58:00,
2013-05-15 04:04:00,50.0,46.0,-100.00,ENE,58,6.0,9.0,86,0.00,,,0.10,0.000000,,2013-05-15 14:04:00,
2013-05-15 04:12:00,50.0,46.0,-100.00,ENE,58,6.0,9.0,86,0.00,,,0.10,0.000000,,2013-05-15 14:12:00,
2013-05-15 04:33:00,47.0,44.0,-100.00,NE,38,1.0,9.0,90,0.00,,,0.10,0.000000,,2013-05-15 14:33:00,
2013-05-15 05:06:00,47.0,44.0,-100.00,NE,38,1.0,9.0,90,0.00,,,0.10,0.000000,,2013-05-15 15:06:00,
2013-05-15 05:13:00,47.0,44.0,-100.00,NE,38,1.0,9.0,90,0.00,,,0.10,0.000000,,2013-05-15 15:13:00,
2013-05-15 05:33:00,48.0,44.0,-100.00,ENE,57,4.0,6.0,87,0.00,,,0.10,0.000000,,2013-05-15 15:33:00,
2013-05-15 05:59:00,48.0,44.0,-100.00,ENE,57,4.0,6.0,87,0.00,,,0.10,0.000000,,2013-05-15 15:59:00,
2013-05-15 06:25:00,48.0,44.0,-100.00,ENE,57,4.0,6.0,87,0.00,,,0.10,0.000000,,2013-05-15 16:25:00,
2013-05-15 06:58:00,48.0,41.0,-100.00,NE,51,5.0,7.0,78,0.00,,,0.10,14.000000,,2013-05-15 16:58:00,
2013-05-15 07:07:00,48.0,41.0,-100.00,NE,51,5.0,7.0,78,0.00,,,0.10,14.000000,,2013-05-15 17:07:00,
2013-05-15 07:15:00,48.0,41.0,-100.00,NE,51,5.0,7.0,78,0.00,,,0.10,14.000000,,2013-05-15 17:15:00,
2013-05-15 07:25:00,48.0,41.0,-100.00,NE,51,5.0,7.0,78,0.00,,,0.10,14.000000,,2013-05-15 17:25:00,
2013-05-15 07:32:00,48.0,41.0,-100.00,NE,51,5.0,7.0,78,0.00,,,0.10,14.000000,,2013-05-15 17:32:00,
2013-05-15 07:33:00,61.0,50.0,-100.00,ENE,73,0.0,8.0,66,0.00,,,0.10,346.000000,,2013-05-15 17:33:00,
2013-05-15 07:58:00,61.0,50.0,-100.00,ENE,73,0.0,8.0,66,0.00,,,0.10,346.000000,,2013-05-15 17:58:00,
2013-05-15 08:04:00,61.0,50.0,-100.00,ENE,73,0.0,8.0,66,0.00,,,0.10,346.000000,,2013-05-15 18:04:00,
2013-05-15 08:13:00,61.0,50.0,-100.00,ENE,73,0.0,8.0,66,0.00,,,0.10,346.000000,,2013-05-15 18:13:00,
2013-05-15 08:25:00,61.0,50.0,-100.00,ENE,73,0.0,8.0,66,0.00,,,0.10,346.000000,,2013-05-15 18:25:00,
2013-05-15 08:33:00,62.0,54.0,-100.00,WNW,289,3.0,7.0,75,0.00,,,0.10,557.000000,,2013-05-15 18:33:00,
2013-05-15 08:56:00,62.0,54.0,-100.00,WNW,289,3.0,7.0,75,0.00,,,0.10,557.000000,,2013-05-15 18:56:00,
2013-05-15 09:06:00,62.0,54.0,-100.00,WNW,289,3.0,7.0,75,0.00,,,0.10,557.000000,,2013-05-15 19:06:00,
2013-05-15 09:13:00,62.0,54.0,-100.00,WNW,289,3.0,7.0,75,0.00,,,0.10,557.000000,,2013-05-15 19:13:00,
2013-05-15 09:56:00,62.0,56.0,-100.00,WSW,250,4.0,7.0,82,0.00,,,0.10,475.000000,,2013-05-15 19:56:00,
2013-05-15 10:05:00,62.0,56.0,-100.00,WSW,250,4.0,7.0,82,0.00,,,0.10,475.000000,,2013-05-15 20:05:00,
2013-05-15 10:14:00,62.0,56.0,-100.00,WSW,250,4.0,7.0,82,0.00,,,0.10,475.000000,,2013-05-15 20:14:00,
2013-05-15 10:23:00,62.0,56.0,-100.00,WSW,250,4.0,7.0,82,0.00,,,0.10,475.000000,,2013-05-15 20:23:00,
2013-05-15 10:32:00,62.0,56.0,-100.00,WSW,250,4.0,7.0,82,0.00,,,0.10,475.000000,,2013-05-15 20:32:00,
2013-05-15 10:55:00,60.0,56.0,-100.00,West,268,5.0,9.0,87,0.00,,,0.10,545.000000,,2013-05-15 20:55:00,
2013-05-15 11:05:00,60.0,56.0,-100.00,West,268,5.0,9.0,87,0.00,,,0.10,545.000000,,2013-05-15 21:05:00,
2013-05-15 11:16:00,60.0,56.0,-100.00,West,268,5.0,9.0,87,0.00,,,0.10,545.000000,,2013-05-15 21:16:00,
2013-05-15 11:26:00,60.0,56.0,-100.00,West,268,5.0,9.0,87,0.00,,,0.10,545.000000,,2013-05-15 21:26:00,
2013-05-15 11:33:00,60.0,57.0,-100.00,WSW,257,5.0,9.0,90,0.00,,,0.10,354.000000,,2013-05-15 21:33:00,
2013-05-15 12:00:00,60.0,57.0,-100.00,WSW,257,5.0,9.0,90,0.00,,,0.10,354.000000,,2013-05-15 22:00:00,
2013-05-15 12:08:00,60.0,57.0,-100.00,WSW,257,5.0,9.0,90,0.00,,,0.10,354.000000,,2013-05-15 22:08:00,
2013-05-15 12:15:00,60.0,57.0,-100.00,WSW,257,5.0,9.0,90,0.00,,,0.10,354.000000,,2013-05-15 22:15:00,
2013-05-15 12:33:00,59.0,57.0,-100.00,WNW,292,4.0,9.0,93,0.00,,,0.10,213.000000,,2013-05-15 22:33:00,
2013-05-15 12:59:00,59.0,57.0,-100.00,WNW,292,4.0,9.0,93,0.00,,,0.10,213.000000,,2013-05-15 22:59:00,
2013-05-15 13:06:00,59.0,57.0,-100.00,WNW,292,4.0,9.0,93,0.00,,,0.10,213.000000,,2013-05-15 23:06:00,
2013-05-15 13:14:00,59.0,57.0,-100.00,WNW,292,4.0,9.0,93,0.00,,,0.10,213.000000,,2013-05-15 23:14:00,
2013-05-15 13:24:00,59.0,57.0,-100.00,WNW,292,4.0,9.0,93,0.00,,,0.10,213.000000,,2013-05-15 23:24:00,
2013-05-15 13:33:00,62.0,58.0,-100.00,West,272,4.0,10.0,88,0.00,,,0.10,409.000000,,2013-05-15 23:33:00,
2013-05-15 13:59:00,62.0,58.0,-100.00,West,272,4.0,10.0,88,0.00,,,0.10,409.000000,,2013-05-15 23:59:00,
2013-05-15 14:16:00,62.0,58.0,-100.00,West,272,4.0,10.0,88,0.00,,,0.10,409.000000,,2013-05-16 00:16:00,
2013-05-15 14:23:00,62.0,58.0,-100.00,West,272,4.0,10.0,88,0.00,,,0.10,409.000000,,2013-05-16 00:23:00,
2013-05-15 14:58:00,60.0,57.0,-100.00,West,269,2.0,9.0,91,0.00,,,0.10,192.000000,,2013-05-16 00:58:00,
2013-05-15 15:05:00,60.0,57.0,-100.00,West,269,2.0,9.0,91,0.00,,,0.10,192.000000,,2013-05-16 01:05:00,
2013-05-15 15:14:00,60.0,57.0,-100.00,West,269,2.0,9.0,91,0.00,,,0.10,192.000000,,2013-05-16 01:14:00,
2013-05-15 15:24:00,60.0,57.0,-100.00,West,269,2.0,9.0,91,0.00,,,0.10,192.000000,,2013-05-16 01:24:00,
2013-05-15 15:33:00,59.0,59.0,-100.00,WSW,257,4.0,10.0,99,0.00,,,0.10,296.000000,,2013-05-16 01:33:00,
2013-05-15 15:59:00,59.0,59.0,-100.00,WSW,257,4.0,10.0,99,0.00,,,0.10,296.000000,,2013-05-16 01:59:00,
2013-05-15 16:13:00,59.0,59.0,-100.00,WSW,257,4.0,10.0,99,0.00,,,0.10,296.000000,,2013-05-16 02:13:00,
2013-05-15 16:26:00,59.0,59.0,-100.00,WSW,257,4.0,10.0,99,0.00,,,0.10,296.000000,,2013-05-16 02:26:00,
2013-05-15 16:33:00,58.0,58.0,-100.00,West,261,4.0,8.0,100,0.00,,,0.03,130.000000,,2013-05-16 02:33:00,
2013-05-15 17:04:00,58.0,58.0,-100.00,West,261,4.0,8.0,100,0.00,,,0.03,130.000000,,2013-05-16 03:04:00,
2013-05-15 17:14:00,58.0,58.0,-100.00,West,261,4.0,8.0,100,0.00,,,0.03,130.000000,,2013-05-16 03:14:00,
2013-05-15 17:24:00,58.0,58.0,-100.00,West,261,4.0,8.0,100,0.00,,,0.03,130.000000,,2013-05-16 03:24:00,
2013-05-15 17:33:00,57.0,57.0,-100.00,West,268,0.0,6.0,100,0.00,,,0.02,80.000000,,2013-05-16 03:33:00,
2013-05-15 17:56:00,57.0,57.0,-100.00,West,268,0.0,6.0,100,0.00,,,0.02,80.000000,,2013-05-16 03:56:00,
2013-05-15 18:02:00,57.0,57.0,-100.00,West,268,0.0,6.0,100,0.00,,,0.02,80.000000,,2013-05-16 04:02:00,
2013-05-15 18:12:00,57.0,57.0,-100.00,West,268,0.0,6.0,100,0.00,,,0.02,80.000000,,2013-05-16 04:12:00,
2013-05-15 18:23:00,57.0,57.0,-100.00,West,268,0.0,6.0,100,0.00,,,0.02,80.000000,,2013-05-16 04:23:00,
2013-05-15 18:53:00,56.0,56.0,-100.00,South,172,0.0,4.0,100,0.00,,,0.01,68.000000,,2013-05-16 04:53:00,
2013-05-15 19:02:00,56.0,56.0,-100.00,South,172,0.0,4.0,100,0.00,,,0.01,68.000000,,2013-05-16 05:02:00,
2013-05-15 19:12:00,56.0,56.0,-100.00,South,172,0.0,4.0,100,0.00,,,0.01,68.000000,,2013-05-16 05:12:00,
2013-05-15 19:22:00,56.0,56.0,-100.00,South,172,0.0,4.0,100,0.00,,,0.01,68.000000,,2013-05-16 05:22:00,
2013-05-15 19:32:00,56.0,56.0,-100.00,South,172,0.0,4.0,100,0.00,,,0.01,68.000000,,2013-05-16 05:32:00,
2013-05-15 19:33:00,56.0,56.0,-100.00,NE,53,1.0,4.0,100,0.00,,,0.01,5.000000,,2013-05-16 05:33:00,
2013-05-15 19:52:00,56.0,56.0,-100.00,NE,53,1.0,4.0,100,0.00,,,0.01,5.000000,,2013-05-16 05:52:00,
2013-05-15 20:01:00,56.0,56.0,-100.00,NE,53,1.0,4.0,100,0.00,,,0.01,5.000000,,2013-05-16 06:01:00,
2013-05-15 20:12:00,56.0,56.0,-100.00,NE,53,1.0,4.0,100,0.00,,,0.01,5.000000,,2013-05-16 06:12:00,
2013-05-15 20:22:00,56.0,56.0,-100.00,NE,53,1.0,4.0,100,0.00,,,0.01,5.000000,,2013-05-16 06:22:00,
2013-05-15 20:33:00,55.0,55.0,-100.00,NNE,18,0.0,5.0,100,0.00,,,0.01,0.000000,,2013-05-16 06:33:00,
2013-05-15 20:53:00,55.0,55.0,-100.00,NNE,18,0.0,5.0,100,0.00,,,0.01,0.000000,,2013-05-16 06:53:00,
2013-05-15 21:02:00,55.0,55.0,-100.00,NNE,18,0.0,5.0,100,0.00,,,0.01,0.000000,,2013-05-16 07:02:00,
2013-05-15 21:12:00,55.0,55.0,-100.00,NNE,18,0.0,5.0,100,0.00,,,0.01,0.000000,,2013-05-16 07:12:00,
2013-05-15 21:24:00,55.0,55.0,-100.00,NNE,18,0.0,5.0,100,0.00,,,0.01,0.000000,,2013-05-16 07:24:00,
2013-05-15 21:33:00,54.0,54.0,-100.00,NNE,12,0.0,4.0,100,0.00,,,0.00,0.000000,,2013-05-16 07:33:00,
2013-05-15 21:54:00,54.0,54.0,-100.00,NNE,12,0.0,4.0,100,0.00,,,0.00,0.000000,,2013-05-16 07:54:00,
2013-05-15 22:03:00,54.0,54.0,-100.00,NNE,12,0.0,4.0,100,0.00,,,0.00,0.000000,,2013-05-16 08:03:00,
2013-05-15 22:13:00,54.0,54.0,-100.00,NNE,12,0.0,4.0,100,0.00,,,0.00,0.000000,,2013-05-16 08:13:00,
2013-05-15 22:23:00,54.0,54.0,-100.00,NNE,12,0.0,4.0,100,0.00,,,0.00,0.000000,,2013-05-16 08:23:00,
2013-05-15 22:33:00,52.0,52.0,-100.00,North,0,3.0,8.0,100,0.01,,,0.01,0.000000,,2013-05-16 08:33:00,
2013-05-15 22:55:00,52.0,52.0,-100.00,North,0,3.0,8.0,100,0.01,,,0.01,0.000000,,2013-05-16 08:55:00,
2013-05-15 23:04:00,52.0,52.0,-100.00,North,0,3.0,8.0,100,0.01,,,0.01,0.000000,,2013-05-16 09:04:00,
2013-05-15 23:14:00,52.0,52.0,-100.00,North,0,3.0,8.0,100,0.01,,,0.01,0.000000,,2013-05-16 09:14:00,
2013-05-15 23:24:00,52.0,52.0,-100.00,North,0,3.0,8.0,100,0.01,,,0.01,0.000000,,2013-05-16 09:24:00,
2013-05-15 23:33:00,52.0,52.0,-100.00,NE,37,5.0,8.0,100,0.00,,,0.01,0.000000,,2013-05-16 09:33:00,
2013-05-15 23:55:00,52.0,52.0,-100.00,NE,37,5.0,8.0,100,0.00,,,0.01,0.000000,,2013-05-16 09:55:00,